createdAt,value
2023-01-30T00:09:48.643Z,17.21
2023-01-30T00:19:55.870Z,17.23
2023-01-30T00:30:03.788Z,17.21
2023-01-30T00:40:12.526Z,17.25
2023-01-30T00:50:19.429Z,17.27
2023-01-30T01:00:26.473Z,17.26
2023-01-30T01:10:33.269Z,17.26
2023-01-30T01:20:41.135Z,17.28
2023-01-30T01:30:48.654Z,17.27
2023-01-30T01:40:55.432Z,17.26
2023-01-30T01:51:02.786Z,17.26
2023-01-30T02:01:09.759Z,17.25
2023-01-30T02:11:17.664Z,17.23
2023-01-30T02:21:24.645Z,17.23
2023-01-30T02:31:31.760Z,17.27
2023-01-30T02:41:38.636Z,17.27
2023-01-30T02:51:46.102Z,17.23
2023-01-30T03:01:53.449Z,17.23
2023-01-30T03:12:00.959Z,17.21
2023-01-30T03:22:08.992Z,17.21
2023-01-30T03:32:16.101Z,17.23
2023-01-30T03:42:23.157Z,17.23
2023-01-30T03:52:29.962Z,17.20
2023-01-30T04:02:37.235Z,17.20
2023-01-30T04:12:44.110Z,17.25
2023-01-30T04:22:51.399Z,17.25
2023-01-30T04:32:58.128Z,17.25
2023-01-30T04:43:05.263Z,17.25
2023-01-30T04:53:12.335Z,17.25
2023-01-30T05:03:18.931Z,17.23
2023-01-30T05:13:24.951Z,17.25
2023-01-30T05:23:32.074Z,17.23
2023-01-30T05:33:38.975Z,17.23
2023-01-30T05:43:45.386Z,17.23
2023-01-30T05:53:52.683Z,17.27
2023-01-30T06:03:59.761Z,17.30
2023-01-30T06:14:06.608Z,17.30
2023-01-30T06:24:13.366Z,17.33
2023-01-30T06:34:20.439Z,17.29
2023-01-30T06:44:28.038Z,17.23
2023-01-30T06:54:34.668Z,17.27
2023-01-30T07:04:41.832Z,17.27
2023-01-30T07:14:48.835Z,17.29
2023-01-30T07:24:55.959Z,17.29
2023-01-30T07:35:05.768Z,17.29
2023-01-30T07:45:13.133Z,17.30
2023-01-30T07:55:20.436Z,17.30
2023-01-30T08:05:27.233Z,17.35
2023-01-30T08:15:34.208Z,17.35
2023-01-30T08:25:41.090Z,17.41
2023-01-30T08:35:48.469Z,17.40
2023-01-30T08:45:55.381Z,17.38
2023-01-30T08:56:01.253Z,17.38
2023-01-30T09:06:07.014Z,15.77
2023-01-30T09:16:14.338Z,14.69
2023-01-30T09:26:21.109Z,14.98
2023-01-30T09:36:28.128Z,15.41
2023-01-30T09:46:35.287Z,15.77
2023-01-30T09:56:42.221Z,16.12
2023-01-30T10:06:49.435Z,16.33
2023-01-30T10:16:56.705Z,16.48
2023-01-30T10:27:04.841Z,16.59
2023-01-30T10:37:12.567Z,16.73
2023-01-30T10:47:22.131Z,16.85
2023-01-30T10:57:30.935Z,16.95
2023-01-30T11:07:37.798Z,16.95
2023-01-30T11:17:44.648Z,16.99
2023-01-30T11:27:52.094Z,17.20
2023-01-30T11:37:59.686Z,17.20
2023-01-30T11:48:07.867Z,17.25
2023-01-30T11:58:17.307Z,17.27
2023-01-30T12:08:39.446Z,17.27
2023-01-30T12:18:36.166Z,17.35
2023-01-30T12:28:43.177Z,17.35
2023-01-30T12:38:50.341Z,17.42
2023-01-30T12:59:08.053Z,17.52
2023-01-30T13:09:14.315Z,17.20
2023-01-30T13:19:23.081Z,17.35
2023-01-30T13:29:32.328Z,17.35
2023-01-30T13:39:42.599Z,17.49
2023-01-30T13:49:50.370Z,17.49
2023-01-30T13:59:57.917Z,17.54
2023-01-30T14:10:04.441Z,17.54
2023-01-30T14:20:11.527Z,17.50
2023-01-30T14:30:19.454Z,17.56
2023-01-30T14:40:26.341Z,17.56
2023-01-30T14:50:34.129Z,17.63
2023-01-30T15:00:40.754Z,17.63
2023-01-30T15:10:46.938Z,17.63
2023-01-30T15:20:53.587Z,16.11
2023-01-30T15:31:00.885Z,16.11
2023-01-30T15:41:07.769Z,16.38
2023-01-30T15:51:15.118Z,16.62
2023-01-30T16:01:22.339Z,16.79
2023-01-30T16:11:28.707Z,16.98
2023-01-30T16:21:35.898Z,17.09
2023-01-30T16:31:43.277Z,17.18
2023-01-30T16:41:50.145Z,17.23
2023-01-30T16:51:57.511Z,17.26
2023-01-30T17:02:05.303Z,17.30
2023-01-30T17:12:12.414Z,17.35
2023-01-30T17:22:19.441Z,17.35
2023-01-30T17:32:26.800Z,17.40
2023-01-30T17:42:33.284Z,17.40
2023-01-30T17:52:40.462Z,17.42
2023-01-30T18:02:46.780Z,17.42
2023-01-30T18:12:53.309Z,17.38
2023-01-30T18:22:59.759Z,17.34
2023-01-30T18:33:07.000Z,17.16
2023-01-30T18:43:13.617Z,17.16
2023-01-30T18:53:20.611Z,17.12
2023-01-30T19:03:26.630Z,17.12
2023-01-30T19:13:33.560Z,17.14
2023-01-30T19:23:40.821Z,17.14
2023-01-30T19:33:48.122Z,17.12
2023-01-30T19:43:55.183Z,17.12
2023-01-30T19:54:02.311Z,17.12
2023-01-30T20:04:08.980Z,17.09
2023-01-30T20:14:16.135Z,17.09
2023-01-30T20:24:22.946Z,17.13
2023-01-30T20:34:29.913Z,17.16
2023-01-30T20:44:37.459Z,17.16
2023-01-30T20:54:44.253Z,17.12
2023-01-30T21:04:51.343Z,17.12
2023-01-30T21:14:58.573Z,17.09
2023-01-30T21:25:05.621Z,17.09
2023-01-30T21:35:13.016Z,17.14
2023-01-30T21:45:20.229Z,17.14
2023-01-30T21:55:27.826Z,17.12
2023-01-30T22:05:34.558Z,17.12
2023-01-30T22:15:41.834Z,17.13
2023-01-30T22:25:48.844Z,17.13
2023-01-30T22:35:55.762Z,17.13
2023-01-30T22:46:01.565Z,17.13
2023-01-30T22:56:07.845Z,17.12
2023-01-30T23:06:14.907Z,17.11
2023-01-30T23:16:21.536Z,17.13
2023-01-30T23:26:29.146Z,17.12
2023-01-30T23:36:36.542Z,17.13
2023-01-30T23:46:42.863Z,17.13
2023-01-30T23:56:49.879Z,17.11
